Time;durP1;ratioP1;P1;durP2;ratioP2;P2;SDS_P1;SDS_P2;PMS_P1;PMS_P2;Temp;Humidity;BMP_temperature;BMP_pressure;BME280_temperature;BME280_humidity;BME280_pressure;Samples;Min_cycle;Max_cycle;Signal;HPM_P1;HPM_P2
2021/03/09 00:01:53;;;;;;;1.77;0.87;;;;;;;;;;5070009;28;20445;-70
2021/03/09 00:04:19;;;;;;;1.20;0.60;;;;;;;;;;5051400;28;20411;-70
2021/03/09 00:06:45;;;;;;;0.80;0.50;;;;;;;;;;5065147;28;20475;-71
2021/03/09 00:09:11;;;;;;;0.70;0.50;;;;;;;;;;5069750;28;20431;-70
2021/03/09 00:11:37;;;;;;;0.80;0.60;;;;;;;;;;5061826;28;20509;-69
2021/03/09 00:14:03;;;;;;;2.63;1.07;;;;;;;;;;5055313;28;20403;-70
2021/03/09 00:16:29;;;;;;;0.73;0.53;;;;;;;;;;5057706;28;20414;-69
2021/03/09 00:18:55;;;;;;;1.17;0.90;;;;;;;;;;5053305;28;20610;-70
2021/03/09 00:21:21;;;;;;;0.70;0.40;;;;;;;;;;5052645;28;20514;-70
2021/03/09 00:23:47;;;;;;;0.70;0.50;;;;;;;;;;5052820;28;20500;-70
2021/03/09 00:26:13;;;;;;;0.80;0.77;;;;;;;;;;5052875;28;20467;-70
2021/03/09 00:28:39;;;;;;;0.70;0.50;;;;;;;;;;5052582;28;20413;-70
2021/03/09 00:31:05;;;;;;;5.23;0.80;;;;;;;;;;5063810;28;20403;-69
2021/03/09 00:33:31;;;;;;;0.80;0.63;;;;;;;;;;5060737;22;20482;-73
2021/03/09 00:35:57;;;;;;;0.70;0.40;;;;;;;;;;5024851;28;20430;-74
2021/03/09 00:38:23;;;;;;;0.87;0.60;;;;;;;;;;5012435;28;20464;-74
2021/03/09 00:40:49;;;;;;;0.70;0.50;;;;;;;;;;5026322;28;20428;-74
2021/03/09 00:43:15;;;;;;;0.70;0.50;;;;;;;;;;5016627;28;20420;-74
2021/03/09 00:45:41;;;;;;;1.03;0.93;;;;;;;;;;5001349;28;20499;-73
2021/03/09 00:48:07;;;;;;;0.70;0.50;;;;;;;;;;5010194;28;20532;-74
2021/03/09 00:50:33;;;;;;;0.90;0.60;;;;;;;;;;5014181;28;21006;-73
2021/03/09 00:52:59;;;;;;;0.70;0.40;;;;;;;;;;4996396;28;20431;-75
2021/03/09 00:55:25;;;;;;;0.70;0.60;;;;;;;;;;5014086;28;20456;-73
2021/03/09 00:57:57;;;;;;;0.90;0.60;;;;;;;;;;5009202;28;20433;-72
2021/03/09 01:00:23;;;;;;;1.20;0.83;;;;;;;;;;5013241;28;20751;-72
2021/03/09 01:02:49;;;;;;;2.30;0.90;;;;;;;;;;4996137;28;20444;-73
2021/03/09 01:05:15;;;;;;;0.90;0.70;;;;;;;;;;5013612;28;20777;-73
2021/03/09 01:07:41;;;;;;;0.80;0.60;;;;;;;;;;4996904;28;20467;-74
2021/03/09 01:10:08;;;;;;;0.70;0.50;;;;;;;;;;5029935;28;20967;-73
2021/03/09 01:12:34;;;;;;;0.90;0.63;;;;;;;;;;5029491;28;20444;-73
2021/03/09 01:15:00;;;;;;;0.70;0.50;;;;;;;;;;5001742;28;20455;-73
2021/03/09 01:17:26;;;;;;;0.70;0.50;;;;;;;;;;5001513;28;20455;-73
2021/03/09 01:19:52;;;;;;;0.70;0.50;;;;;;;;;;4994751;28;20853;-74
2021/03/09 01:22:18;;;;;;;0.70;0.40;;;;;;;;;;4992766;28;20412;-73
2021/03/09 01:24:43;;;;;;;0.80;0.60;;;;;;;;;;4993136;28;20463;-74
2021/03/09 01:27:11;;;;;;;2.10;1.00;;;;;;;;;;4992847;28;20437;-74
2021/03/09 01:29:37;;;;;;;0.70;0.60;;;;;;;;;;5008848;28;20424;-73
2021/03/09 01:32:04;;;;;;;0.80;0.60;;;;;;;;;;4996590;28;20428;-75
2021/03/09 01:34:30;;;;;;;0.70;0.50;;;;;;;;;;4999166;28;20429;-74
2021/03/09 01:36:55;;;;;;;1.17;0.83;;;;;;;;;;4996031;28;21016;-73
2021/03/09 01:39:22;;;;;;;1.23;1.00;;;;;;;;;;4991981;28;20841;-73
2021/03/09 01:41:48;;;;;;;2.40;1.20;;;;;;;;;;5011856;28;20422;-73
2021/03/09 01:44:14;;;;;;;2.40;0.80;;;;;;;;;;4997609;28;20449;-75
2021/03/09 01:46:41;;;;;;;3.37;1.37;;;;;;;;;;5012965;28;20498;-73
2021/03/09 01:49:07;;;;;;;0.70;0.43;;;;;;;;;;5013047;28;20416;-73
2021/03/09 01:51:33;;;;;;;0.70;0.40;;;;;;;;;;5013102;28;20906;-73
2021/03/09 01:53:59;;;;;;;0.70;0.50;;;;;;;;;;5012990;28;20925;-72
2021/03/09 01:56:25;;;;;;;1.00;0.87;;;;;;;;;;5000640;28;20424;-72
2021/03/09 01:58:52;;;;;;;0.70;0.40;;;;;;;;;;4993379;28;20510;-73
2021/03/09 02:01:18;;;;;;;6.60;1.20;;;;;;;;;;4995012;28;20421;-73
2021/03/09 02:03:44;;;;;;;0.70;0.40;;;;;;;;;;5013716;28;20483;-73
2021/03/09 02:06:14;;;;;;;0.90;0.60;;;;;;;;;;5012765;28;20413;-74
2021/03/09 02:08:40;;;;;;;0.80;0.50;;;;;;;;;;5007452;28;20452;-74
2021/03/09 02:11:09;;;;;;;0.70;0.50;;;;;;;;;;4993136;28;20976;-73
2021/03/09 02:13:49;;;;;;;0.77;0.67;;;;;;;;;;4993104;28;20424;-72
2021/03/09 02:16:22;;;;;;;0.70;0.50;;;;;;;;;;4993231;28;20516;-73
2021/03/09 02:18:55;;;;;;;5.23;0.70;;;;;;;;;;5005805;28;20467;-73
2021/03/09 02:21:35;;;;;;;1.00;0.60;;;;;;;;;;4993469;28;20429;-73
2021/03/09 02:24:10;;;;;;;0.70;0.50;;;;;;;;;;5008513;28;20419;-73
2021/03/09 02:26:40;;;;;;;0.70;0.60;;;;;;;;;;5010644;28;20542;-73
2021/03/09 02:29:15;;;;;;;0.70;0.53;;;;;;;;;;4996949;28;20712;-72
2021/03/09 02:31:43;;;;;;;0.80;0.50;;;;;;;;;;5013017;28;20419;-73
2021/03/09 02:34:10;;;;;;;0.70;0.50;;;;;;;;;;5016224;28;20419;-72
2021/03/09 02:36:37;;;;;;;0.70;0.60;;;;;;;;;;5012102;28;20443;-73
2021/03/09 02:39:07;;;;;;;0.80;0.60;;;;;;;;;;4978667;28;20466;-73
2021/03/09 02:41:37;;;;;;;0.70;0.40;;;;;;;;;;5007940;28;20769;-73
2021/03/09 02:44:03;;;;;;;0.83;0.70;;;;;;;;;;5015855;28;20419;-73
2021/03/09 02:46:30;;;;;;;0.93;0.83;;;;;;;;;;5015537;28;20510;-73
2021/03/09 02:48:56;;;;;;;99.60;62.20;;;;;;;;;;5009092;28;20479;-72
2021/03/09 02:51:26;;;;;;;291.67;101.90;;;;;;;;;;5008132;28;20757;-72
2021/03/09 02:53:55;;;;;;;0.70;0.50;;;;;;;;;;5013103;28;20177;-73
2021/03/09 02:56:22;;;;;;;10.90;9.73;;;;;;;;;;5013776;28;20946;-73
2021/03/09 02:58:52;;;;;;;63.43;54.13;;;;;;;;;;5021763;28;20455;-73
2021/03/09 03:01:18;;;;;;;87.65;70.50;;;;;;;;;;5040317;28;20550;-71
2021/03/09 03:03:45;;;;;;;0.70;0.53;;;;;;;;;;5016198;28;20169;-74
2021/03/09 03:06:14;;;;;;;0.80;0.60;;;;;;;;;;4999829;28;20418;-73
2021/03/09 03:08:40;;;;;;;0.90;0.57;;;;;;;;;;4995231;28;20441;-74
2021/03/09 03:11:07;;;;;;;0.70;0.50;;;;;;;;;;5000257;28;20814;-73
2021/03/09 03:13:33;;;;;;;0.70;0.40;;;;;;;;;;5007503;28;20412;-73
2021/03/09 03:15:59;;;;;;;0.70;0.40;;;;;;;;;;5015671;28;20501;-73
2021/03/09 03:18:27;;;;;;;0.70;0.50;;;;;;;;;;4994768;28;20487;-74
2021/03/09 03:20:53;;;;;;;0.70;0.50;;;;;;;;;;5012474;28;20507;-73
2021/03/09 03:23:22;;;;;;;2.50;2.10;;;;;;;;;;4995568;28;20511;-73
2021/03/09 03:25:51;;;;;;;0.73;0.60;;;;;;;;;;4995346;28;20423;-73
2021/03/09 03:28:17;;;;;;;0.70;0.50;;;;;;;;;;4998099;28;20471;-73
2021/03/09 03:30:43;;;;;;;0.70;0.60;;;;;;;;;;5019599;28;20460;-71
2021/03/09 03:33:09;;;;;;;0.70;0.60;;;;;;;;;;4996401;28;20445;-73
2021/03/09 03:35:35;;;;;;;0.70;0.50;;;;;;;;;;4996150;28;20420;-74
2021/03/09 03:38:01;;;;;;;0.90;0.60;;;;;;;;;;4995727;28;20435;-72
2021/03/09 03:40:28;;;;;;;0.70;0.50;;;;;;;;;;4995094;28;20441;-74
2021/03/09 03:42:53;;;;;;;0.70;0.40;;;;;;;;;;4996667;28;20440;-72
2021/03/09 03:45:20;;;;;;;0.70;0.50;;;;;;;;;;5024565;28;20431;-74
2021/03/09 03:47:47;;;;;;;1.20;1.10;;;;;;;;;;4994535;28;20446;-74
2021/03/09 03:50:15;;;;;;;0.70;0.50;;;;;;;;;;5012634;28;20458;-73
2021/03/09 03:52:47;;;;;;;44.23;27.23;;;;;;;;;;5014367;28;20416;-74
2021/03/09 03:55:18;;;;;;;75.25;44.85;;;;;;;;;;5015055;28;20421;-74
2021/03/09 03:57:48;;;;;;;2.03;1.53;;;;;;;;;;4998238;28;20201;-73
2021/03/09 04:00:15;;;;;;;375.85;131.63;;;;;;;;;;5012005;28;20831;-73
2021/03/09 04:02:42;;;;;;;4.63;3.90;;;;;;;;;;5014703;28;20543;-73
2021/03/09 04:05:09;;;;;;;310.52;83.18;;;;;;;;;;5014569;28;20415;-72
2021/03/09 04:07:36;;;;;;;308.98;89.97;;;;;;;;;;5014274;28;20295;-72
2021/03/09 04:10:02;;;;;;;354.25;97.88;;;;;;;;;;4997152;28;20211;-72
2021/03/09 04:12:29;;;;;;;0.70;0.50;;;;;;;;;;5007570;28;20182;-72
2021/03/09 04:14:58;;;;;;;329.63;91.10;;;;;;;;;;4976749;28;20915;-72
2021/03/09 04:17:24;;;;;;;310.48;81.72;;;;;;;;;;5018258;28;20204;-71
2021/03/09 04:19:51;;;;;;;326.15;85.30;;;;;;;;;;4995535;28;20809;-73
2021/03/09 04:22:18;;;;;;;380.80;106.00;;;;;;;;;;5012937;28;20303;-73
2021/03/09 04:24:44;;;;;;;0.80;0.70;;;;;;;;;;5003140;28;20549;-73
2021/03/09 04:27:20;;;;;;;318.75;78.72;;;;;;;;;;4998499;28;20961;-72
2021/03/09 04:29:47;;;;;;;340.15;83.10;;;;;;;;;;5029899;28;20263;-73
2021/03/09 04:32:13;;;;;;;0.70;0.50;;;;;;;;;;4977473;28;20664;-71
2021/03/09 04:34:39;;;;;;;343.45;79.25;;;;;;;;;;4994606;28;20440;-74
2021/03/09 04:37:05;;;;;;;371.23;100.60;;;;;;;;;;5098548;22;20208;31
2021/03/09 04:39:31;;;;;;;349.67;86.60;;;;;;;;;;5020774;28;20274;-70
2021/03/09 04:41:57;;;;;;;348.63;93.32;;;;;;;;;;5031456;28;20966;-71
2021/03/09 04:44:23;;;;;;;337.57;74.80;;;;;;;;;;5024286;28;20261;-71
2021/03/09 04:46:49;;;;;;;326.00;74.27;;;;;;;;;;5023380;28;20423;-71
2021/03/09 04:49:16;;;;;;;334.40;79.90;;;;;;;;;;5013243;28;20444;-70
2021/03/09 04:51:42;;;;;;;53.28;19.33;;;;;;;;;;5080654;22;20489;-78
2021/03/09 04:54:08;;;;;;;277.33;71.53;;;;;;;;;;5076043;28;20171;-78
2021/03/09 04:56:34;;;;;;;0.80;0.63;;;;;;;;;;5079649;28;20207;-77
2021/03/09 04:59:00;;;;;;;0.70;0.50;;;;;;;;;;5053785;28;20817;-77
2021/03/09 05:01:26;;;;;;;0.70;0.50;;;;;;;;;;5035120;28;20418;-77
2021/03/09 05:03:52;;;;;;;0.70;0.50;;;;;;;;;;5036127;28;20487;-77
2021/03/09 05:06:18;;;;;;;0.80;0.60;;;;;;;;;;5046573;28;20410;-77
2021/03/09 05:08:44;;;;;;;0.70;0.50;;;;;;;;;;5048982;28;20446;-77
2021/03/09 05:11:10;;;;;;;1.27;0.70;;;;;;;;;;5036357;28;20588;-77
2021/03/09 05:13:36;;;;;;;0.80;0.60;;;;;;;;;;5062190;28;20451;-77
2021/03/09 05:16:02;;;;;;;0.70;0.50;;;;;;;;;;5060173;28;20529;-78
2021/03/09 05:18:28;;;;;;;1.03;0.93;;;;;;;;;;5054543;28;20461;-78
2021/03/09 05:20:56;;;;;;;0.90;0.70;;;;;;;;;;5056291;28;20445;-78
2021/03/09 05:23:22;;;;;;;0.70;0.50;;;;;;;;;;5055517;28;20421;-78
2021/03/09 05:25:48;;;;;;;0.70;0.60;;;;;;;;;;5055753;28;20427;-78
2021/03/09 05:28:14;;;;;;;0.70;0.60;;;;;;;;;;5057399;28;20465;-78
2021/03/09 05:30:40;;;;;;;0.73;0.50;;;;;;;;;;5054982;28;20410;-77
2021/03/09 05:33:06;;;;;;;0.70;0.50;;;;;;;;;;5065757;28;20418;-77
2021/03/09 05:35:32;;;;;;;0.70;0.50;;;;;;;;;;5055503;28;20429;-77
2021/03/09 05:37:59;;;;;;;0.87;0.87;;;;;;;;;;5046227;28;20438;-77
2021/03/09 05:40:25;;;;;;;0.70;0.50;;;;;;;;;;5044865;28;20657;-77
2021/03/09 05:42:51;;;;;;;1.00;0.60;;;;;;;;;;5045241;28;20490;-77
2021/03/09 05:45:18;;;;;;;0.90;0.70;;;;;;;;;;5045273;28;20938;-77
2021/03/09 05:47:44;;;;;;;1.33;0.80;;;;;;;;;;5049118;28;20449;-77
2021/03/09 05:50:11;;;;;;;0.70;0.50;;;;;;;;;;5041580;28;20464;-77
2021/03/09 05:52:37;;;;;;;0.70;0.50;;;;;;;;;;5048263;28;20472;-78
2021/03/09 05:55:07;;;;;;;0.70;0.50;;;;;;;;;;5045461;28;20460;-78
2021/03/09 05:57:34;;;;;;;0.90;0.70;;;;;;;;;;5044827;28;20440;-78
2021/03/09 06:00:00;;;;;;;2.40;1.33;;;;;;;;;;5041164;28;20585;-78
2021/03/09 06:02:26;;;;;;;3.10;2.90;;;;;;;;;;5042845;28;20418;-77
2021/03/09 06:04:52;;;;;;;0.70;0.50;;;;;;;;;;5044428;28;20488;-78
2021/03/09 06:07:18;;;;;;;0.70;0.50;;;;;;;;;;5041462;28;20203;-75
2021/03/09 06:09:44;;;;;;;0.80;0.60;;;;;;;;;;5042256;28;20838;-75
2021/03/09 06:12:12;;;;;;;0.70;0.50;;;;;;;;;;5038218;28;20425;-75
2021/03/09 06:14:42;;;;;;;0.70;0.50;;;;;;;;;;5039859;28;20414;-75
2021/03/09 06:17:13;;;;;;;0.80;0.50;;;;;;;;;;5047137;28;20481;-75
2021/03/09 06:19:42;;;;;;;0.70;0.50;;;;;;;;;;5039191;28;20620;-75
2021/03/09 06:22:08;;;;;;;1.07;0.77;;;;;;;;;;5054217;28;20835;-75
2021/03/09 06:24:36;;;;;;;10.52;1.45;;;;;;;;;;5043632;28;20413;-75
2021/03/09 06:27:02;;;;;;;0.97;0.73;;;;;;;;;;5047922;28;20178;-75
2021/03/09 06:29:29;;;;;;;1.53;0.80;;;;;;;;;;5041532;28;20456;-75
2021/03/09 06:32:04;;;;;;;0.70;0.50;;;;;;;;;;5035118;28;20414;-75
2021/03/09 06:34:34;;;;;;;0.70;0.50;;;;;;;;;;5044673;28;20176;-75
2021/03/09 06:37:09;;;;;;;0.90;0.80;;;;;;;;;;5044490;28;21002;-75
2021/03/09 06:39:48;;;;;;;0.70;0.50;;;;;;;;;;5035255;28;20488;-75
2021/03/09 06:42:35;;;;;;;0.80;0.60;;;;;;;;;;5044094;28;20444;-77
2021/03/09 06:45:02;;;;;;;0.70;0.50;;;;;;;;;;5047283;28;20184;-78
2021/03/09 06:47:32;;;;;;;0.70;0.40;;;;;;;;;;5039066;28;20261;-78
2021/03/09 06:49:58;;;;;;;0.70;0.50;;;;;;;;;;5042654;28;20237;-78
2021/03/09 06:52:25;;;;;;;0.70;0.50;;;;;;;;;;5045370;28;20205;-78
2021/03/09 06:54:52;;;;;;;3.15;2.25;;;;;;;;;;5043449;28;20180;-79
2021/03/09 06:57:18;;;;;;;0.70;0.60;;;;;;;;;;5041736;28;20255;-78
2021/03/09 06:59:47;;;;;;;0.70;0.50;;;;;;;;;;5042939;28;20668;-74
2021/03/09 07:02:34;;;;;;;0.80;0.70;;;;;;;;;;5062082;28;20168;-74
2021/03/09 07:05:04;;;;;;;0.70;0.50;;;;;;;;;;5038524;28;20414;-78
2021/03/09 07:07:32;;;;;;;1.95;1.85;;;;;;;;;;5039570;28;20985;-74
2021/03/09 07:10:04;;;;;;;1.00;0.60;;;;;;;;;;5042732;28;20203;-78
2021/03/09 07:12:30;;;;;;;0.70;0.50;;;;;;;;;;5038106;28;20423;-81
2021/03/09 07:14:57;;;;;;;1.00;0.80;;;;;;;;;;5036985;28;20421;-79
2021/03/09 07:17:24;;;;;;;0.70;0.50;;;;;;;;;;5044907;28;20194;-78
2021/03/09 07:19:50;;;;;;;0.70;0.60;;;;;;;;;;5056623;28;20231;-80
2021/03/09 07:22:18;;;;;;;0.70;0.40;;;;;;;;;;5060263;28;21237;-80
2021/03/09 07:24:58;;;;;;;0.70;0.60;;;;;;;;;;5053132;28;20426;-79
2021/03/09 07:27:26;;;;;;;0.70;0.50;;;;;;;;;;5052696;28;20441;-79
2021/03/09 07:29:55;;;;;;;0.80;0.70;;;;;;;;;;5049698;28;20903;-79
2021/03/09 07:32:22;;;;;;;2.80;1.10;;;;;;;;;;5057427;28;20172;-78
2021/03/09 07:34:52;;;;;;;0.90;0.60;;;;;;;;;;5074819;28;20425;-78
2021/03/09 07:37:18;;;;;;;1.33;1.00;;;;;;;;;;5064793;28;20206;-79
2021/03/09 07:39:44;;;;;;;0.70;0.50;;;;;;;;;;5055964;28;20455;-79
2021/03/09 07:42:11;;;;;;;0.90;0.50;;;;;;;;;;5058248;28;20425;-80
2021/03/09 07:44:38;;;;;;;0.70;0.40;;;;;;;;;;5056490;28;20238;-79
2021/03/09 07:47:05;;;;;;;0.70;0.50;;;;;;;;;;5058199;28;20412;-79
2021/03/09 07:49:31;;;;;;;0.70;0.50;;;;;;;;;;5051022;28;20170;-79
2021/03/09 07:52:14;;;;;;;0.80;0.70;;;;;;;;;;5045956;28;20573;-79
2021/03/09 07:55:00;;;;;;;0.70;0.50;;;;;;;;;;5047255;28;20541;-79
2021/03/09 07:57:26;;;;;;;0.70;0.60;;;;;;;;;;5055277;28;20280;-80
2021/03/09 07:59:57;;;;;;;0.70;0.40;;;;;;;;;;5056807;28;20601;-79
2021/03/09 08:02:38;;;;;;;0.70;0.60;;;;;;;;;;5048322;28;20806;-79
2021/03/09 08:05:05;;;;;;;0.70;0.50;;;;;;;;;;5049001;28;20181;-78
2021/03/09 08:07:50;;;;;;;0.95;0.80;;;;;;;;;;5050051;28;20656;-78
2021/03/09 08:10:34;;;;;;;0.70;0.60;;;;;;;;;;5050846;28;20181;-79
2021/03/09 08:13:12;;;;;;;3.28;1.02;;;;;;;;;;5052260;28;20193;-78
2021/03/09 08:15:39;;;;;;;0.70;0.50;;;;;;;;;;5048846;28;20171;-79
2021/03/09 08:18:20;;;;;;;0.80;0.60;;;;;;;;;;5052714;28;20203;-79
2021/03/09 08:20:59;;;;;;;0.70;0.60;;;;;;;;;;5049684;28;20431;-79
2021/03/09 08:23:34;;;;;;;0.90;0.70;;;;;;;;;;5047542;28;20449;-79
2021/03/09 08:26:01;;;;;;;0.70;0.50;;;;;;;;;;5049593;28;20202;-79
2021/03/09 08:28:31;;;;;;;1.53;0.77;;;;;;;;;;5060055;28;20943;-78
2021/03/09 08:31:16;;;;;;;2.00;1.43;;;;;;;;;;5056637;28;20406;-79
2021/03/09 08:34:03;;;;;;;1.90;1.43;;;;;;;;;;5069089;28;20390;-78
2021/03/09 08:36:31;;;;;;;1.00;0.80;;;;;;;;;;5080499;28;20421;-78
2021/03/09 08:39:22;;;;;;;0.70;0.50;;;;;;;;;;5062771;28;20457;-78
2021/03/09 08:41:47;;;;;;;0.70;0.50;;;;;;;;;;5068884;28;20475;-78
2021/03/09 08:44:13;;;;;;;0.70;0.50;;;;;;;;;;5058618;28;20414;-76
2021/03/09 08:46:52;;;;;;;1.10;0.60;;;;;;;;;;5073442;28;20484;-78
2021/03/09 08:49:36;;;;;;;0.70;0.50;;;;;;;;;;5044565;28;20428;-78
2021/03/09 08:52:03;;;;;;;0.70;0.50;;;;;;;;;;5062051;28;20421;-78
2021/03/09 08:54:40;;;;;;;0.70;0.50;;;;;;;;;;5058181;28;20426;-78
2021/03/09 08:57:07;;;;;;;0.90;0.70;;;;;;;;;;5057536;28;20437;-78
2021/03/09 08:59:34;;;;;;;1.90;1.80;;;;;;;;;;5054119;28;20850;-78
2021/03/09 09:02:08;;;;;;;0.77;0.60;;;;;;;;;;5052861;28;20424;-78
2021/03/09 09:04:34;;;;;;;0.80;0.50;;;;;;;;;;5056265;28;20416;-78
2021/03/09 09:07:00;;;;;;;0.70;0.50;;;;;;;;;;5057630;28;20427;-78
2021/03/09 09:09:38;;;;;;;0.80;0.70;;;;;;;;;;5060275;28;20900;-78
2021/03/09 09:12:23;;;;;;;1.93;1.27;;;;;;;;;;5076962;28;20645;-77
2021/03/09 09:15:09;;;;;;;0.70;0.60;;;;;;;;;;5055909;28;20466;-77
2021/03/09 09:17:38;;;;;;;1.13;1.03;;;;;;;;;;5061906;28;20423;-78
2021/03/09 09:20:06;;;;;;;0.70;0.50;;;;;;;;;;5059629;28;20600;-78
2021/03/09 09:22:32;;;;;;;0.87;0.63;;;;;;;;;;5056834;28;20419;-77
2021/03/09 09:24:58;;;;;;;2.10;2.00;;;;;;;;;;5053578;28;20416;-77
2021/03/09 09:27:25;;;;;;;1.53;1.43;;;;;;;;;;5060738;28;20430;-78
2021/03/09 09:29:52;;;;;;;1.40;0.97;;;;;;;;;;5051697;28;20445;-77
2021/03/09 09:32:18;;;;;;;1.87;1.60;;;;;;;;;;5055663;28;20417;-76
2021/03/09 09:34:44;;;;;;;1.33;1.23;;;;;;;;;;5058359;28;20422;-78
2021/03/09 09:37:11;;;;;;;3.07;1.10;;;;;;;;;;5041548;28;20445;-78
2021/03/09 09:39:37;;;;;;;0.70;0.60;;;;;;;;;;5058311;28;20534;-78
2021/03/09 09:42:03;;;;;;;2.60;1.70;;;;;;;;;;5069848;28;20429;-78
2021/03/09 09:44:29;;;;;;;0.73;0.53;;;;;;;;;;5045168;28;20423;-76
2021/03/09 09:46:55;;;;;;;0.70;0.50;;;;;;;;;;5051586;28;20463;-77
2021/03/09 09:49:22;;;;;;;0.70;0.50;;;;;;;;;;5050804;28;20407;-77
2021/03/09 09:51:48;;;;;;;0.80;0.70;;;;;;;;;;5047138;28;20462;-78
2021/03/09 09:54:16;;;;;;;1.50;1.03;;;;;;;;;;5052600;28;20549;-77
2021/03/09 09:56:42;;;;;;;0.73;0.60;;;;;;;;;;5076913;28;20402;-77
2021/03/09 09:59:08;;;;;;;0.70;0.50;;;;;;;;;;5055666;28;20483;-78
2021/03/09 10:01:38;;;;;;;9.10;1.03;;;;;;;;;;5050344;28;20442;-78
2021/03/09 10:04:04;;;;;;;3.37;1.37;;;;;;;;;;5043406;28;20422;-77
2021/03/09 10:06:37;;;;;;;0.93;0.90;;;;;;;;;;5040105;28;20439;-77
2021/03/09 10:09:13;;;;;;;5.87;1.90;;;;;;;;;;5055955;28;20543;-77
2021/03/09 10:11:46;;;;;;;1.83;1.73;;;;;;;;;;5051460;28;20504;-78
2021/03/09 10:14:12;;;;;;;1.00;0.73;;;;;;;;;;5057758;28;20427;-78
2021/03/09 10:16:39;;;;;;;0.70;0.50;;;;;;;;;;5042203;28;20427;-77
2021/03/09 10:19:06;;;;;;;1.07;0.90;;;;;;;;;;5057709;28;20491;-77
2021/03/09 10:21:32;;;;;;;1.67;0.77;;;;;;;;;;5058066;28;20418;-77
2021/03/09 10:24:02;;;;;;;3.17;0.90;;;;;;;;;;5056137;28;20895;-77
2021/03/09 10:26:41;;;;;;;0.70;0.50;;;;;;;;;;5037773;28;20462;-77
2021/03/09 10:29:14;;;;;;;0.70;0.50;;;;;;;;;;5048071;28;20938;-77
2021/03/09 10:31:41;;;;;;;2.10;2.00;;;;;;;;;;5061128;28;20572;-77
2021/03/09 10:34:07;;;;;;;3.67;1.53;;;;;;;;;;5066511;28;20413;-78
2021/03/09 10:36:52;;;;;;;0.70;0.50;;;;;;;;;;5061295;28;20420;-74
2021/03/09 10:39:18;;;;;;;0.90;0.80;;;;;;;;;;5068522;28;20453;-78
2021/03/09 10:41:44;;;;;;;0.70;0.50;;;;;;;;;;5063473;28;20402;-77
2021/03/09 10:44:29;;;;;;;0.70;0.50;;;;;;;;;;5075732;28;20878;-80
2021/03/09 10:46:55;;;;;;;0.80;0.63;;;;;;;;;;5050264;28;20421;-77
2021/03/09 10:49:22;;;;;;;0.70;0.60;;;;;;;;;;5063032;28;20410;-78
2021/03/09 10:51:47;;;;;;;1.60;1.50;;;;;;;;;;5047779;28;20425;-78
2021/03/09 10:54:13;;;;;;;0.80;0.60;;;;;;;;;;5047876;28;20402;-78
2021/03/09 10:56:40;;;;;;;1.20;0.80;;;;;;;;;;5055902;28;20410;-79
2021/03/09 10:59:06;;;;;;;0.93;0.83;;;;;;;;;;5040489;28;20470;-79
2021/03/09 11:01:32;;;;;;;1.50;1.40;;;;;;;;;;5039621;28;20417;-79
2021/03/09 11:03:59;;;;;;;4.73;1.40;;;;;;;;;;5039864;28;20469;-79
2021/03/09 11:06:25;;;;;;;0.70;0.50;;;;;;;;;;5041686;28;20420;-79
2021/03/09 11:08:51;;;;;;;2.13;1.53;;;;;;;;;;5049069;28;20791;-79
2021/03/09 11:11:17;;;;;;;0.77;0.60;;;;;;;;;;5050811;28;20413;-79
2021/03/09 11:13:43;;;;;;;3.37;2.20;;;;;;;;;;5047140;28;20494;-79
2021/03/09 11:16:08;;;;;;;1.03;0.93;;;;;;;;;;5049534;28;20429;-78
2021/03/09 11:18:34;;;;;;;5.10;1.50;;;;;;;;;;5062945;28;20501;-79
2021/03/09 11:21:00;;;;;;;0.73;0.50;;;;;;;;;;5058456;28;20414;-79
2021/03/09 11:23:26;;;;;;;0.70;0.57;;;;;;;;;;5057790;28;20904;-79
2021/03/09 11:25:52;;;;;;;6.40;1.77;;;;;;;;;;5050060;28;20432;-79
2021/03/09 11:28:18;;;;;;;1.67;0.90;;;;;;;;;;5041342;28;20433;-79
2021/03/09 11:30:44;;;;;;;1.07;0.70;;;;;;;;;;5048322;28;20435;-79
2021/03/09 11:33:11;;;;;;;0.70;0.50;;;;;;;;;;5042765;28;20783;-79
2021/03/09 11:35:36;;;;;;;0.73;0.60;;;;;;;;;;5045165;28;20833;-80
2021/03/09 11:38:03;;;;;;;0.70;0.60;;;;;;;;;;5049520;28;20433;-79
2021/03/09 11:40:29;;;;;;;1.27;1.17;;;;;;;;;;5048386;28;20476;-79
2021/03/09 11:42:55;;;;;;;0.80;0.63;;;;;;;;;;5050546;28;20419;-80
2021/03/09 11:45:21;;;;;;;1.27;0.60;;;;;;;;;;5042956;28;20467;-80
2021/03/09 11:47:47;;;;;;;0.70;0.60;;;;;;;;;;5045885;28;20426;-79
2021/03/09 11:50:13;;;;;;;1.10;0.70;;;;;;;;;;5046684;28;20428;-79
2021/03/09 11:52:39;;;;;;;1.00;0.83;;;;;;;;;;5042997;28;20444;-79
2021/03/09 11:55:07;;;;;;;1.00;0.90;;;;;;;;;;5043234;28;20495;-79
2021/03/09 11:57:33;;;;;;;0.80;0.60;;;;;;;;;;5043587;28;20445;-78
2021/03/09 11:59:59;;;;;;;0.80;0.60;;;;;;;;;;5046324;28;20459;-80
2021/03/09 12:02:25;;;;;;;0.83;0.67;;;;;;;;;;5044974;28;20488;-79
2021/03/09 12:04:51;;;;;;;1.17;0.87;;;;;;;;;;5049084;28;20417;-79
2021/03/09 12:07:19;;;;;;;1.20;0.80;;;;;;;;;;5047790;28;20445;-79
2021/03/09 12:09:45;;;;;;;1.60;1.50;;;;;;;;;;5049814;28;20424;-78
2021/03/09 12:12:11;;;;;;;1.67;1.47;;;;;;;;;;5052167;28;20443;-78
2021/03/09 12:14:37;;;;;;;2.50;0.97;;;;;;;;;;5054676;28;20970;-79
2021/03/09 12:17:04;;;;;;;0.80;0.60;;;;;;;;;;5046699;28;20424;-78
2021/03/09 12:19:30;;;;;;;1.27;0.63;;;;;;;;;;5048172;28;20464;-79
2021/03/09 12:21:56;;;;;;;2.70;1.30;;;;;;;;;;5047481;28;20425;-78
2021/03/09 12:24:22;;;;;;;5.20;2.07;;;;;;;;;;5050870;28;21926;-79
2021/03/09 12:26:48;;;;;;;3.53;0.90;;;;;;;;;;5045057;28;20413;-78
2021/03/09 12:29:14;;;;;;;0.70;0.50;;;;;;;;;;5050556;28;20449;-79
2021/03/09 12:31:40;;;;;;;1.10;0.77;;;;;;;;;;5050506;28;20421;-80
2021/03/09 12:34:06;;;;;;;1.03;0.60;;;;;;;;;;5048110;28;20582;-80
2021/03/09 12:36:32;;;;;;;1.17;0.80;;;;;;;;;;5045058;28;20413;-79
2021/03/09 12:38:58;;;;;;;5.93;1.97;;;;;;;;;;5040698;28;20468;-79
2021/03/09 12:41:24;;;;;;;0.70;0.50;;;;;;;;;;5052874;28;20400;-79
2021/03/09 12:43:50;;;;;;;1.03;0.93;;;;;;;;;;5056788;28;20460;-78
2021/03/09 12:46:16;;;;;;;0.70;0.50;;;;;;;;;;5045747;28;20417;-80
2021/03/09 12:48:42;;;;;;;0.70;0.70;;;;;;;;;;5044313;28;20442;-79
2021/03/09 12:51:08;;;;;;;1.20;0.70;;;;;;;;;;5051820;28;20438;-79
2021/03/09 12:53:34;;;;;;;0.83;0.83;;;;;;;;;;5067011;28;20425;-79
2021/03/09 12:56:00;;;;;;;0.70;0.57;;;;;;;;;;5051721;28;20466;-78
2021/03/09 12:58:26;;;;;;;0.70;0.60;;;;;;;;;;5046432;28;20432;-78
2021/03/09 13:00:52;;;;;;;1.30;1.20;;;;;;;;;;5046776;28;20413;-79
2021/03/09 13:03:18;;;;;;;1.23;0.70;;;;;;;;;;5047429;28;20417;-79
2021/03/09 13:05:45;;;;;;;1.20;1.10;;;;;;;;;;5048613;28;20909;-80
2021/03/09 13:08:11;;;;;;;0.80;0.60;;;;;;;;;;5044859;28;20454;-80
2021/03/09 13:10:37;;;;;;;0.70;0.60;;;;;;;;;;5049650;28;20414;-79
2021/03/09 13:13:02;;;;;;;0.80;0.70;;;;;;;;;;5050643;28;20434;-79
2021/03/09 13:15:28;;;;;;;0.80;0.63;;;;;;;;;;5053454;28;20426;-79
2021/03/09 13:17:54;;;;;;;2.70;0.87;;;;;;;;;;5043327;28;20453;-78
2021/03/09 13:20:20;;;;;;;0.70;0.60;;;;;;;;;;5041308;28;20482;-74
2021/03/09 13:22:47;;;;;;;1.03;0.87;;;;;;;;;;5045031;28;20416;-77
2021/03/09 13:25:14;;;;;;;1.63;1.53;;;;;;;;;;5045498;28;20421;-77
2021/03/09 13:27:40;;;;;;;1.13;1.03;;;;;;;;;;5041746;28;20433;-77
2021/03/09 13:30:16;;;;;;;0.70;0.50;;;;;;;;;;5044549;28;20777;-77
2021/03/09 13:32:43;;;;;;;0.70;0.60;;;;;;;;;;5043255;28;20407;-76
2021/03/09 13:35:10;;;;;;;1.00;0.80;;;;;;;;;;5044238;28;20418;-76
2021/03/09 13:37:36;;;;;;;1.33;0.70;;;;;;;;;;5043274;28;20937;-77
2021/03/09 13:40:02;;;;;;;2.03;1.23;;;;;;;;;;5039896;28;22087;-76
2021/03/09 13:42:28;;;;;;;0.70;0.60;;;;;;;;;;5028134;28;20456;-76
2021/03/09 13:44:54;;;;;;;0.80;0.70;;;;;;;;;;5043466;28;20471;-77
2021/03/09 13:47:20;;;;;;;0.70;0.50;;;;;;;;;;5040147;28;20436;-76
2021/03/09 13:49:46;;;;;;;0.93;0.83;;;;;;;;;;5040409;28;20816;-77
2021/03/09 13:52:12;;;;;;;0.80;0.67;;;;;;;;;;5041688;28;20506;-77
2021/03/09 13:54:38;;;;;;;0.90;0.80;;;;;;;;;;5046700;28;20430;-77
2021/03/09 13:57:05;;;;;;;1.47;0.90;;;;;;;;;;5061110;28;20412;-77
2021/03/09 13:59:31;;;;;;;0.87;0.80;;;;;;;;;;5046602;28;20858;-76
2021/03/09 14:01:57;;;;;;;0.70;0.60;;;;;;;;;;5046905;28;20422;-77
2021/03/09 14:04:22;;;;;;;0.80;0.60;;;;;;;;;;5057501;28;20478;-76
2021/03/09 14:06:48;;;;;;;0.87;0.67;;;;;;;;;;5054946;28;20406;-76
2021/03/09 14:09:14;;;;;;;0.70;0.60;;;;;;;;;;5059015;28;20505;-76
2021/03/09 14:11:40;;;;;;;1.30;1.20;;;;;;;;;;5054317;28;20422;-78
2021/03/09 14:14:06;;;;;;;4.60;2.60;;;;;;;;;;5048635;28;20793;-76
2021/03/09 14:16:32;;;;;;;1.20;1.03;;;;;;;;;;5047146;28;20413;-76
2021/03/09 14:18:58;;;;;;;0.80;0.60;;;;;;;;;;5045633;28;20974;-77
2021/03/09 14:21:24;;;;;;;0.70;0.60;;;;;;;;;;5042520;28;20438;-77
2021/03/09 14:23:50;;;;;;;2.10;1.47;;;;;;;;;;5046281;28;20449;-77
2021/03/09 14:26:16;;;;;;;0.80;0.60;;;;;;;;;;5050171;28;20400;-76
2021/03/09 14:28:42;;;;;;;0.83;0.73;;;;;;;;;;5047218;28;20432;-76
2021/03/09 14:31:08;;;;;;;1.40;0.67;;;;;;;;;;5051044;28;20490;-78
2021/03/09 14:33:34;;;;;;;0.70;0.50;;;;;;;;;;5049778;28;20832;-77
2021/03/09 14:36:00;;;;;;;1.50;1.40;;;;;;;;;;5049479;28;20425;-77
2021/03/09 14:38:26;;;;;;;2.03;1.53;;;;;;;;;;5046527;28;20434;-76
2021/03/09 14:40:52;;;;;;;1.73;1.00;;;;;;;;;;5055349;28;20484;-76
2021/03/09 14:43:18;;;;;;;1.53;0.80;;;;;;;;;;5048430;28;20406;-76
2021/03/09 14:45:44;;;;;;;0.80;0.60;;;;;;;;;;5049917;28;20910;-77